Date,TemperatureHighF,TemperatureAvgF,TemperatureLowF,DewpointHighF,DewpointAvgF,DewpointLowF,HumidityHigh,HumidityAvg,HumidityLow,PressureMaxIn,PressureMinIn,WindSpeedMaxMPH,WindSpeedAvgMPH,GustSpeedMaxMPH,PrecipitationSumIn
2013-1-1,37.5,32.1,20.2,27.2,19.6,8.7,72,60,49,29.91,29.69,8,3,15,0.00
2013-1-2,30.3,21.5,13.7,17.2,10.3,3.3,71,62,53,30.08,29.87,6,2,12,0.00
2013-1-3,25.4,16.2,6.4,11.3,2.0,-3.7,68,54,32,30.11,29.97,3,2,7,0.00
2013-1-4,39.0,29.5,18.1,25.0,20.2,11.1,84,68,53,29.97,29.78,7,2,12,0.00
2013-1-5,41.9,34.2,26.2,26.0,22.6,18.9,83,63,44,30.23,29.82,6,2,8,0.00
2013-1-6,42.7,34.1,26.3,29.3,26.5,21.5,88,74,58,30.20,29.91,5,1,10,0.00
2013-1-7,38.3,33.0,25.3,30.3,24.1,17.7,89,71,46,30.37,29.93,5,1,15,0.00
2013-1-8,46.6,35.6,24.2,30.1,27.5,21.8,93,74,51,30.34,30.23,6,2,9,0.00
2013-1-9,44.5,37.1,26.8,36.3,30.0,24.5,92,76,59,30.38,29.97,5,1,10,0.00
2013-1-10,46.5,42.0,34.9,29.4,25.4,23.9,65,52,41,30.51,30.00,8,4,12,0.00
2013-1-11,40.4,35.4,28.4,36.2,28.9,23.8,93,77,64,30.49,30.20,2,0,3,0.10
2013-1-12,43.7,41.1,37.9,42.4,39.7,36.1,96,95,93,30.21,30.09,1,0,3,0.01
2013-1-13,52.2,47.0,42.3,49.7,45.5,41.2,97,95,90,30.12,29.96,3,1,6,0.00
2013-1-14,60.6,52.1,42.5,52.5,43.6,28.1,94,75,41,30.21,29.82,6,2,9,0.00
2013-1-15,42.3,38.9,35.4,29.2,26.3,23.9,69,61,53,30.28,30.17,3,1,6,0.00
2013-1-16,35.4,33.4,30.6,32.5,29.7,23.1,94,87,62,30.22,29.79,2,0,4,0.26
2013-1-17,41.8,35.4,30.2,33.5,28.3,14.4,94,77,50,30.06,29.80,5,2,8,0.00
2013-1-18,30.0,23.4,18.5,15.3,3.0,-3.6,54,41,29,30.43,30.03,6,3,10,0.00
2013-1-19,48.6,37.5,21.9,32.8,23.1,7.4,76,56,39,30.36,29.86,7,3,13,0.00
2013-1-20,54.1,41.9,29.5,33.4,26.3,11.0,73,55,35,29.89,29.51,9,4,18,0.00
2013-1-21,29.3,25.8,22.3,21.0,11.5,6.1,88,56,38,30.08,29.77,6,2,16,0.00
2013-1-22,24.9,21.0,14.0,20.6,9.7,-0.3,90,64,37,30.05,29.73,6,2,11,0.01
2013-1-23,16.7,12.3,8.2,1.5,-5.2,-9.3,63,45,31,30.11,30.04,6,3,10,0.00
2013-1-24,21.2,12.0,3.9,-4.7,-7.5,-10.0,57,42,26,30.20,30.03,6,3,12,0.00
2013-1-25,24.4,17.2,9.5,13.6,-4.6,-10.2,82,39,24,30.28,30.04,6,2,9,0.00
2013-1-26,25.1,18.1,12.9,13.9,4.8,-4.7,84,59,32,30.21,29.98,5,2,11,0.00
2013-1-27,30.7,21.4,13.1,5.1,1.8,-3.5,66,44,27,30.44,30.20,6,3,13,0.00
2013-1-28,31.7,25.5,20.1,27.6,14.2,2.8,93,65,35,30.43,29.99,3,1,6,0.12
2013-1-29,34.5,30.9,26.6,32.8,28.3,24.0,94,90,85,30.17,29.99,2,1,3,0.02
2013-1-30,61.4,49.6,34.4,57.3,47.5,32.9,97,93,85,30.13,29.42,8,3,17,0.04
2013-1-31,60.9,48.6,31.9,58.4,37.7,15.4,93,68,40,29.56,28.93,10,6,18,0.46
2013-2-1,33.5,29.5,23.2,17.6,9.8,4.8,56,44,32,30.06,29.56,7,4,12,0.00
2013-2-2,30.4,25.2,18.6,13.2,8.1,3.5,59,48,39,30.23,30.02,5,2,9,0.00
2013-2-3,27.4,25.4,22.8,23.1,20.6,13.1,88,82,55,30.03,29.71,4,1,6,0.00
2013-2-4,30.5,25.3,21.6,22.2,12.9,7.3,89,61,38,29.92,29.69,9,4,14,0.01
2013-2-5,29.3,25.8,21.7,23.6,14.6,9.7,89,63,50,30.00,29.91,4,1,5,0.01
2013-2-6,38.6,30.7,26.0,27.0,20.2,6.2,90,68,41,30.26,29.90,6,2,12,0.00
2013-2-7,29.7,27.0,22.5,17.4,5.1,0.0,65,39,30,30.50,30.27,4,2,9,0.00
2013-2-8,33.5,29.6,18.6,31.4,25.7,16.7,96,86,65,30.46,29.57,11,6,18,0.45
2013-2-9,21.2,18.8,14.9,19.5,17.0,12.7,93,92,91,30.16,29.54,9,6,15,0.25
2013-2-10,32.8,22.8,11.3,31.6,21.1,8.9,97,93,90,30.37,30.16,4,1,7,0.00
2013-2-11,44.0,31.3,19.1,43.2,30.1,17.4,97,95,93,30.33,29.58,2,0,5,0.19
2013-2-12,44.7,38.8,32.7,37.5,31.2,27.1,97,75,54,29.85,29.58,8,3,13,0.00
2013-2-13,43.5,35.7,28.2,28.7,26.2,23.1,82,69,52,29.85,29.65,4,1,6,0.00
2013-2-14,44.4,36.9,30.6,28.8,24.3,21.2,80,61,41,29.96,29.67,4,1,6,0.00
2013-2-15,52.2,39.7,30.4,36.2,31.7,24.5,93,75,50,29.97,29.86,5,2,10,0.00
2013-2-16,38.8,35.3,30.9,32.5,28.1,19.6,92,76,55,29.92,29.69,4,2,8,0.03
2013-2-17,30.8,22.7,18.1,21.4,13.6,2.8,90,69,46,29.68,29.36,8,5,19,0.08
2013-2-18,32.3,23.7,15.3,6.0,3.2,0.9,56,42,27,30.13,29.65,8,4,15,0.00
2013-2-19,48.2,37.2,24.3,42.7,24.9,4.6,95,63,42,30.14,29.55,4,2,10,0.33
2013-2-20,42.6,33.4,27.1,41.3,21.4,11.4,95,63,42,29.75,29.49,8,4,12,0.01
2013-2-21,33.7,28.6,25.2,17.0,14.6,11.7,67,56,44,30.16,29.75,7,4,14,0.00
2013-2-22,38.9,32.1,24.8,26.1,21.6,17.0,79,66,44,30.36,30.16,5,2,10,0.00
2013-2-23,39.4,35.2,30.7,33.1,29.6,25.0,94,80,70,30.31,29.89,4,1,6,0.16
2013-2-24,37.9,34.8,31.9,36.6,33.1,30.4,95,94,91,29.89,29.66,3,1,8,0.30
2013-2-25,41.3,35.6,30.9,33.0,30.3,26.0,94,82,66,30.22,29.87,3,1,5,0.00
2013-2-26,43.7,37.0,28.8,34.2,30.1,27.3,94,77,57,30.32,30.13,6,2,10,0.00
2013-2-27,42.4,40.4,37.9,40.5,38.1,32.2,95,92,77,30.13,29.53,11,6,18,1.24
2013-2-28,46.5,39.3,34.8,38.8,35.7,33.0,95,87,72,29.61,29.49,2,1,3,0.00
2013-3-1,41.8,38.7,34.1,35.6,31.2,28.5,92,75,64,29.65,29.50,5,2,9,0.00
2013-3-2,43.7,38.3,32.9,30.5,28.3,26.1,78,67,58,29.65,29.59,4,2,7,0.00
2013-3-3,42.3,36.2,33.4,33.4,29.4,25.8,91,76,68,29.62,29.52,4,2,6,0.00
2013-3-4,40.7,35.2,30.6,29.0,25.3,22.2,82,68,53,29.71,29.55,6,4,12,0.00
2013-3-5,44.9,37.8,32.2,34.0,28.5,23.6,86,69,55,30.04,29.71,5,2,11,0.00
2013-3-6,40.3,37.6,34.9,35.9,33.3,30.1,91,85,69,30.08,30.01,12,7,26,0.13
2013-3-7,36.8,33.0,30.9,32.2,30.3,29.0,93,90,75,30.04,29.97,9,5,16,0.12
2013-3-8,42.0,34.3,30.2,32.6,28.6,23.9,95,81,53,30.12,29.92,11,3,15,0.41
2013-3-9,44.4,36.4,30.9,31.8,26.9,21.1,91,69,53,30.32,30.12,7,2,13,0.00
2013-3-10,41.2,35.2,28.1,32.7,30.3,26.1,93,83,70,30.39,30.29,4,2,7,0.00
2013-3-11,53.7,43.3,35.8,41.0,36.7,32.6,92,79,56,30.30,30.12,4,2,8,0.00
2013-3-12,57.6,50.2,42.7,53.3,47.6,40.7,95,91,78,30.13,29.69,5,2,10,0.34
2013-3-13,53.1,45.2,37.4,51.7,32.5,21.6,95,64,33,29.75,29.65,6,3,12,0.00
2013-3-14,36.7,32.3,24.0,25.4,16.2,7.5,68,52,40,29.82,29.68,7,4,14,0.00
2013-3-15,41.4,30.9,21.1,27.7,13.7,6.1,72,50,26,29.85,29.61,7,4,10,0.00
2013-3-16,40.2,34.9,29.3,27.3,15.8,8.3,74,47,29,29.85,29.64,5,2,6,0.00
2013-3-17,38.2,32.2,26.4,17.7,11.6,4.9,65,44,25,30.29,29.85,6,2,10,0.00
2013-3-18,39.2,29.5,20.3,27.1,10.5,1.8,90,47,26,30.44,30.22,5,2,9,0.00
2013-3-19,36.2,33.3,29.3,34.6,31.5,26.5,94,93,89,30.22,29.58,10,5,21,0.85
2013-3-20,38.7,32.3,26.1,26.6,22.4,19.5,90,68,48,29.79,29.67,7,3,13,0.00
2013-3-21,37.4,31.1,25.6,29.2,23.6,17.3,89,74,49,29.80,29.59,3,1,5,0.00
2013-3-22,40.4,34.2,28.4,28.1,21.5,17.7,89,60,42,29.72,29.58,6,3,14,0.00
2013-3-23,43.6,36.4,29.1,24.8,21.1,18.5,74,55,38,29.76,29.61,7,4,13,0.00
2013-3-24,46.9,39.2,31.9,30.6,24.5,20.9,74,56,42,29.79,29.69,5,2,11,0.00
2013-3-25,44.5,38.5,33.4,33.7,30.3,26.3,79,72,59,29.74,29.49,8,3,18,0.00
2013-3-26,50.0,41.9,35.8,31.4,25.6,20.1,78,54,31,29.75,29.50,4,2,9,0.00
2013-3-27,54.7,43.9,32.0,32.3,25.0,22.1,68,49,31,29.84,29.70,5,2,10,0.00
2013-3-28,47.8,42.6,37.5,35.5,33.7,30.3,88,72,51,29.98,29.83,5,2,7,0.01
2013-3-29,57.1,47.0,35.6,35.9,32.7,29.8,83,59,38,30.01,29.92,5,2,9,0.00
2013-3-30,56.8,47.9,37.9,33.9,24.9,14.5,76,45,20,30.06,29.96,5,2,13,0.00
2013-3-31,60.7,46.9,31.1,41.1,28.3,22.6,81,53,24,30.09,29.71,7,2,12,0.01
2013-4-1,62.5,48.0,35.9,48.4,37.5,12.9,94,70,37,29.76,29.46,6,4,12,0.16
2013-4-2,41.3,35.6,30.5,18.9,14.5,10.6,55,42,30,29.92,29.76,8,5,15,0.00
2013-4-3,46.3,37.9,30.8,20.3,14.1,9.5,62,39,24,30.13,29.90,7,5,14,0.00
2013-4-4,56.6,43.0,30.3,26.9,17.1,10.9,59,38,17,30.28,30.02,5,3,9,0.00
2013-4-5,60.7,46.8,38.2,31.4,27.3,20.3,71,50,24,30.03,29.58,5,3,10,0.00
2013-4-6,47.2,39.5,33.3,28.1,12.0,2.0,60,35,17,30.30,29.85,7,3,12,0.00
2013-4-7,55.0,44.0,29.8,40.7,29.0,15.9,80,57,33,30.30,29.97,7,3,13,0.00
2013-4-8,65.4,53.2,44.0,43.5,40.3,33.8,92,65,32,30.05,29.92,6,2,6,0.00
2013-4-9,71.5,56.5,46.9,53.4,44.7,39.4,93,67,39,30.05,29.82,6,2,13,0.08
2013-4-10,64.7,52.3,47.0,49.4,45.7,42.3,93,79,57,29.98,29.81,5,2,8,0.21
2013-4-11,51.6,47.9,43.7,48.3,41.0,27.7,94,78,49,30.10,29.78,4,2,7,0.07
2013-4-12,44.0,39.9,38.2,38.4,35.5,30.2,94,85,58,30.13,29.76,10,5,16,0.43
2013-4-13,53.7,44.1,36.4,41.0,37.2,33.8,92,78,51,29.89,29.72,6,2,8,0.03
2013-4-14,52.5,46.9,40.1,41.4,33.3,27.0,86,61,39,30.18,29.88,6,2,10,0.00
2013-4-15,56.9,46.2,34.5,40.2,34.0,28.8,82,63,40,30.36,30.18,7,2,10,0.00
2013-4-16,64.6,52.8,39.2,51.4,42.8,36.8,92,71,48,30.37,30.01,7,3,12,0.00
2013-4-17,67.0,59.5,51.9,52.7,37.7,28.4,84,48,25,30.28,30.01,5,3,10,0.00
2013-4-18,64.8,53.3,42.2,44.8,35.0,29.2,75,52,32,30.39,30.11,6,3,10,0.00
2013-4-19,75.4,64.2,53.0,62.7,57.7,45.3,95,81,59,30.11,29.62,7,4,14,0.00
2013-4-20,66.5,55.0,45.5,62.5,41.7,24.1,93,64,37,30.18,29.55,6,3,10,0.43
2013-4-21,53.0,44.0,35.3,29.7,23.2,18.8,66,45,26,30.64,30.19,5,3,9,0.00
2013-4-22,49.7,43.1,35.4,35.6,30.5,22.2,81,62,35,30.73,30.56,9,4,16,0.00
2013-4-23,42.9,41.9,40.0,41.0,38.1,31.7,94,87,69,30.56,30.10,6,4,11,0.03
2013-4-24,76.9,55.9,41.9,52.4,45.2,38.5,94,71,26,30.09,29.75,4,3,15,0.01
2013-4-25,65.2,56.6,48.6,52.6,36.7,23.2,91,53,21,30.22,29.79,5,2,9,0.04
2013-4-26,58.2,50.4,44.7,41.6,35.2,28.5,85,57,43,30.39,30.22,7,3,11,0.00
2013-4-27,62.8,52.8,39.7,42.2,37.8,34.4,92,61,36,30.38,30.24,5,2,8,0.00
2013-4-28,68.8,55.4,41.2,42.7,36.5,28.4,87,53,28,30.30,30.17,7,2,11,0.00
2013-4-29,70.0,57.9,47.3,47.7,38.0,24.8,86,52,25,30.24,30.15,3,1,8,0.00
2013-4-30,67.3,56.8,45.8,39.3,30.8,16.0,72,42,16,30.33,30.21,6,2,8,0.00
2013-5-1,66.5,56.4,41.8,40.4,35.1,28.6,84,49,25,30.43,30.33,5,2,9,0.00
2013-5-2,75.9,56.5,45.2,47.1,42.0,35.9,87,62,27,30.44,30.31,9,2,12,0.00
2013-5-3,58.3,51.0,43.9,44.7,41.2,38.9,85,70,55,30.49,30.34,7,3,13,0.00
2013-5-4,56.9,49.2,41.8,45.5,40.6,36.9,89,73,56,30.34,30.27,6,2,10,0.00
2013-5-5,57.2,48.6,39.2,42.2,39.5,36.8,92,73,53,30.30,30.22,6,2,11,0.00
2013-5-6,66.7,51.4,40.4,49.9,44.7,38.3,95,79,47,30.26,30.11,6,1,9,0.00
2013-5-7,76.6,63.0,45.7,59.3,52.2,43.6,93,70,46,30.14,30.04,5,1,9,0.00
2013-5-8,70.3,62.8,54.8,63.0,58.1,52.5,93,85,71,30.15,30.00,6,2,10,0.21
2013-5-9,67.5,60.0,57.8,61.5,57.8,56.1,97,93,74,30.01,29.84,4,1,7,0.54
2013-5-10,78.0,66.8,55.4,61.5,57.3,53.9,97,74,45,29.91,29.84,5,1,8,0.01
2013-5-11,72.1,64.6,59.3,62.9,59.3,54.8,92,83,70,29.87,29.65,3,1,6,0.07
2013-5-12,71.0,61.9,51.3,60.1,51.6,31.3,95,72,38,29.77,29.52,6,2,11,0.06
2013-5-13,59.0,51.7,45.2,35.5,30.9,27.2,60,46,32,29.99,29.77,5,2,9,0.00
2013-5-14,58.5,51.0,42.1,36.2,31.5,27.7,70,49,32,30.01,29.93,5,2,11,0.00
2013-5-15,66.7,53.7,39.2,52.1,40.5,31.3,89,65,31,30.02,29.64,3,1,5,0.01
2013-5-16,81.2,68.3,50.2,51.4,42.3,32.2,94,47,20,29.75,29.58,6,2,10,0.00
2013-5-17,69.7,61.2,54.1,45.7,41.7,35.8,71,50,31,30.18,29.76,5,2,15,0.00
2013-5-18,72.8,61.4,48.3,49.1,44.3,37.5,87,57,30,30.27,30.18,5,1,6,0.00
2013-5-19,73.1,58.4,50.2,54.9,50.6,46.5,94,77,46,30.31,30.19,6,1,8,0.08
2013-5-20,82.2,67.7,56.3,68.0,60.9,54.6,96,81,55,30.19,29.86,3,1,5,0.07
2013-5-21,79.2,62.8,52.1,66.3,58.2,50.1,95,86,63,29.98,29.81,7,2,10,0.15
2013-5-22,66.9,56.8,51.2,60.5,53.5,49.2,95,89,76,30.02,29.85,5,2,8,0.06
2013-5-23,76.5,65.5,55.1,69.0,62.0,53.7,97,89,75,29.89,29.76,4,1,7,0.10
2013-5-24,71.7,63.4,50.0,67.1,61.0,48.3,96,92,79,29.78,29.61,4,1,7,0.68
2013-5-25,52.2,48.2,42.3,49.9,46.3,39.5,96,93,89,29.77,29.66,5,2,10,0.26
2013-5-26,58.6,49.3,40.3,43.6,39.9,37.9,93,72,48,30.07,29.69,7,3,11,0.03
2013-5-27,72.1,58.8,41.6,47.5,39.8,32.2,91,55,25,30.13,30.02,5,2,10,0.00
2013-5-28,72.3,61.4,46.3,53.6,46.7,39.8,91,62,36,30.19,30.11,5,2,10,0.00
2013-5-29,70.4,63.1,58.9,64.7,59.8,52.8,95,89,76,30.16,29.95,3,0,5,0.90
2013-5-30,88.1,76.6,62.9,69.9,66.5,61.7,97,73,50,30.04,29.94,4,1,7,0.01
2013-5-31,93.7,81.8,66.7,71.2,66.7,63.2,92,63,38,30.03,29.87,3,1,6,0.00
2013-6-1,91.9,81.3,67.7,69.6,66.1,62.4,84,62,40,29.91,29.79,3,1,9,0.00
2013-6-2,90.1,79.1,69.2,70.8,66.7,64.1,87,67,43,29.82,29.67,5,2,8,0.00
2013-6-3,77.9,70.1,63.7,68.4,63.5,45.7,93,80,52,29.80,29.71,3,1,5,0.34
2013-6-4,71.9,64.0,52.8,47.1,44.7,41.7,67,50,38,30.05,29.77,5,2,7,0.00
2013-6-5,74.9,64.9,53.4,52.0,47.5,43.3,79,55,37,30.15,30.04,3,1,5,0.00
2013-6-6,75.8,65.7,56.0,55.4,50.2,46.2,81,59,39,30.15,30.05,4,1,7,0.00
2013-6-7,61.1,57.0,54.4,56.7,54.1,48.2,95,90,72,30.07,29.77,5,2,8,2.30
2013-6-8,78.7,64.2,54.0,65.2,58.1,52.6,96,82,61,29.95,29.58,4,2,9,0.57
2013-6-9,79.4,70.4,58.7,59.0,56.4,53.6,91,64,42,30.11,29.95,4,2,8,0.00
2013-6-10,70.1,63.7,58.5,59.9,57.1,54.1,94,80,58,30.16,29.98,5,2,8,0.64
2013-6-11,63.8,59.2,56.8,58.8,56.8,55.1,96,92,83,29.98,29.52,6,2,9,1.05
2013-6-12,70.3,63.1,57.1,58.8,55.6,53.6,96,78,58,29.77,29.52,7,2,11,0.02
2013-6-13,67.9,59.3,53.0,58.1,54.0,51.0,93,83,65,29.78,29.64,4,1,7,0.63
2013-6-14,74.3,61.1,52.2,58.5,53.7,50.2,95,79,49,29.72,29.60,5,2,8,1.07
2013-6-15,79.1,69.2,56.7,54.9,48.7,42.8,88,52,28,29.89,29.72,5,2,6,0.00
2013-6-16,77.1,68.2,55.4,63.1,54.9,47.9,81,64,42,29.90,29.66,2,1,7,0.00
2013-6-17,85.1,71.4,60.6,64.5,60.5,56.3,94,72,38,29.86,29.72,7,1,9,0.30
2013-6-18,75.6,64.3,59.5,64.0,60.2,57.5,95,87,62,29.90,29.83,6,1,8,0.48
2013-6-19,74.0,65.3,56.7,58.3,53.0,48.5,94,67,43,30.10,29.86,4,1,7,0.03
2013-6-20,79.2,68.6,53.7,57.2,51.9,46.7,91,59,35,30.22,30.10,3,1,4,0.00
2013-6-21,84.1,73.2,59.6,65.0,59.4,54.1,83,64,41,30.21,30.12,3,1,5,0.00
2013-6-22,84.9,74.2,63.3,65.1,60.5,57.0,80,64,43,30.17,30.06,3,1,6,0.00
2013-6-23,89.8,77.8,65.8,72.7,65.7,57.5,79,67,53,30.12,29.94,3,1,9,0.01
2013-6-24,92.8,81.4,70.9,74.1,70.5,67.9,94,72,47,29.98,29.82,5,1,6,0.20
2013-6-25,91.3,80.3,69.3,71.5,68.7,66.4,94,70,46,29.88,29.67,4,1,6,0.00
2013-6-26,85.3,76.9,70.6,71.9,69.1,67.0,89,77,61,29.79,29.66,3,1,5,0.00
2013-6-27,72.7,66.7,63.4,66.9,63.9,61.4,95,91,80,29.82,29.70,4,2,5,0.11
2013-6-28,82.3,71.4,61.8,73.8,67.5,60.6,97,88,69,29.71,29.43,4,2,7,0.22
2013-6-29,84.1,76.1,71.2,71.6,69.1,66.8,93,80,60,29.67,29.47,3,1,6,0.00
2013-6-30,85.9,77.6,70.5,73.3,70.3,67.2,91,79,64,29.88,29.67,2,1,6,0.00
2013-7-1,82.9,76.4,72.2,76.5,72.3,70.0,94,88,76,30.02,29.88,2,0,3,0.10
2013-7-2,84.9,75.0,64.6,74.4,69.8,61.1,91,84,67,30.16,30.02,5,1,8,0.00
2013-7-3,89.0,77.3,63.3,74.6,69.5,60.6,92,78,58,30.15,30.07,3,1,6,0.00
2013-7-4,92.5,83.7,73.6,75.9,73.6,71.0,92,73,55,30.14,30.03,3,1,6,0.00
2013-7-5,94.0,86.0,77.4,76.5,74.0,72.0,84,69,52,30.10,29.97,3,1,6,0.00
2013-7-6,91.4,84.1,76.5,75.4,72.1,65.7,87,68,50,30.02,29.91,5,2,8,0.00
2013-7-7,92.1,81.5,73.0,75.5,70.7,65.0,86,71,54,29.97,29.85,3,1,6,0.01
2013-7-8,85.6,78.0,69.6,75.9,71.8,65.5,92,82,69,30.00,29.84,5,2,12,0.01
2013-7-9,74.2,69.4,65.3,67.8,65.2,63.1,94,87,79,30.05,29.99,3,1,6,0.00
2013-7-10,86.1,74.9,67.3,75.2,70.5,64.6,96,87,68,30.02,29.74,3,1,5,0.08
2013-7-11,82.1,76.7,72.5,74.1,72.1,68.5,95,86,72,29.87,29.72,2,0,4,0.10
2013-7-12,76.3,71.8,68.5,69.6,61.5,55.0,92,71,52,30.14,29.87,5,3,10,0.00
2013-7-13,77.5,71.1,66.8,70.4,66.4,62.6,94,85,76,30.25,30.14,3,2,5,0.02
2013-7-14,91.2,80.3,70.5,75.3,71.4,68.5,96,76,48,30.25,30.15,4,1,6,0.01
2013-7-15,91.3,83.0,73.9,74.6,72.2,69.7,91,72,51,30.15,30.04,3,1,7,0.00
2013-7-16,93.6,83.4,73.1,73.1,68.8,66.2,86,63,44,30.11,30.03,4,1,7,0.00
2013-7-17,95.2,84.7,73.7,75.2,71.4,67.5,86,66,42,30.11,29.94,3,1,5,0.00
2013-7-18,92.6,84.2,77.2,76.5,72.4,66.6,85,69,45,29.95,29.88,5,2,8,0.00
2013-7-19,97.5,87.4,76.9,78.5,74.8,70.3,90,68,44,29.90,29.66,5,1,8,0.00
2013-7-20,94.3,86.0,79.1,78.0,73.8,66.1,86,68,48,29.74,29.58,4,1,6,0.00
2013-7-21,81.6,76.0,71.8,68.3,65.0,61.4,88,69,54,29.93,29.74,5,2,8,0.01
2013-7-22,81.2,73.3,68.5,69.7,67.5,65.3,93,83,62,29.95,29.83,5,2,8,0.00
2013-7-23,80.1,72.9,70.2,75.3,70.7,66.8,96,93,81,29.83,29.48,4,1,5,1.10
2013-7-24,86.4,77.6,68.3,73.6,68.0,55.6,97,74,55,29.91,29.52,4,1,7,0.00
2013-7-25,67.4,61.7,59.1,58.8,54.7,49.7,94,79,63,30.06,29.91,4,1,7,0.69
2013-7-26,72.6,65.8,60.0,67.8,62.6,58.3,95,90,83,30.02,29.89,4,1,6,0.60
2013-7-27,83.9,73.2,60.9,68.7,63.8,58.3,93,74,49,30.01,29.93,3,1,5,0.00
2013-7-28,81.9,72.6,67.1,71.6,67.7,64.4,94,85,71,29.97,29.90,4,1,6,0.02
2013-7-29,84.1,73.3,68.2,73.8,68.2,63.6,95,85,62,29.98,29.90,5,0,6,0.27
2013-7-30,82.0,73.4,61.7,67.9,60.7,55.2,95,67,41,30.04,29.97,4,1,7,0.00
2013-7-31,82.3,73.8,63.9,64.6,60.0,55.5,85,64,42,30.09,29.98,3,1,6,0.00
2013-8-1,82.8,72.6,64.0,66.7,63.1,61.0,91,73,51,30.00,29.83,3,1,5,0.00
2013-8-2,82.5,73.0,65.3,69.0,63.3,58.7,95,74,45,29.83,29.73,4,1,10,0.42
2013-8-3,79.5,72.3,65.9,65.1,63.1,60.6,89,74,55,29.81,29.72,3,1,7,0.00
2013-8-4,79.7,70.9,61.6,60.8,57.5,54.5,82,64,42,29.84,29.71,4,1,9,0.00
2013-8-5,75.7,67.2,57.2,55.0,49.0,41.8,83,55,30,30.00,29.84,5,2,7,0.00
2013-8-6,78.5,68.2,54.8,55.7,52.1,49.3,84,59,39,30.10,30.00,4,1,7,0.00
2013-8-7,80.3,69.8,58.3,61.6,55.6,49.9,90,64,36,30.15,30.06,3,1,5,0.00
2013-8-8,81.2,72.5,66.3,71.4,66.3,56.0,92,81,69,30.09,29.95,2,0,5,0.06
2013-8-9,75.6,73.2,71.7,74.4,71.1,69.0,96,93,89,29.98,29.70,2,0,5,1.03
2013-8-10,83.2,75.3,65.7,71.5,62.5,54.7,96,68,41,29.96,29.74,5,2,9,0.01
2013-8-11,79.8,70.5,58.2,59.4,55.5,51.0,88,61,42,30.04,29.94,4,1,6,0.00
2013-8-12,82.4,72.8,62.0,63.2,59.2,54.8,89,65,43,29.99,29.86,3,1,5,0.00
2013-8-13,74.9,70.0,66.1,67.8,64.1,61.8,88,82,66,29.88,29.64,2,0,3,0.00
2013-8-14,74.7,68.1,61.6,63.4,55.4,51.2,91,66,47,29.92,29.62,6,2,14,0.00
2013-8-15,76.2,67.1,55.5,55.9,52.6,48.5,86,62,39,30.07,29.92,4,1,7,0.00
2013-8-16,79.5,69.0,56.3,58.7,55.3,51.9,89,64,40,30.15,30.07,3,1,6,0.00
2013-8-17,78.9,70.4,60.5,61.0,57.8,55.6,85,66,50,30.23,30.15,3,1,7,0.00
2013-8-18,81.0,71.1,62.4,64.2,60.1,57.4,88,69,46,30.23,30.04,2,0,5,0.00
2013-8-19,82.1,72.7,60.5,63.5,60.5,56.2,91,67,42,30.04,29.89,3,1,8,0.00
2013-8-20,85.7,76.7,66.8,66.0,62.0,57.7,82,63,40,30.03,29.93,3,1,6,0.00
2013-8-21,87.9,77.6,64.7,66.6,64.0,60.6,88,65,44,30.09,29.96,3,1,5,0.00
2013-8-22,87.1,76.8,67.1,72.9,67.7,63.1,89,75,51,29.98,29.77,3,1,5,0.00
2013-8-23,79.1,73.4,66.9,69.3,60.3,49.4,90,65,45,30.07,29.77,4,2,7,0.00
2013-8-24,75.0,67.1,57.4,51.7,48.5,42.1,78,53,31,30.29,30.08,4,1,7,0.00
2013-8-25,82.9,70.4,56.1,57.0,52.7,47.8,86,57,30,30.32,30.14,3,1,5,0.00
2013-8-26,81.4,72.7,66.5,67.0,62.3,56.6,81,70,55,30.15,29.82,5,1,6,0.00
2013-8-27,80.6,74.0,69.4,70.0,67.5,65.0,94,81,65,29.85,29.77,4,1,7,0.05
2013-8-28,83.0,72.4,65.1,67.9,64.9,62.4,93,79,56,29.93,29.80,4,1,8,0.00
2013-8-29,67.1,65.0,62.8,64.7,61.5,57.8,93,89,83,30.03,29.90,5,2,7,0.00
2013-8-30,82.9,71.5,62.7,68.1,63.5,57.9,87,77,59,29.99,29.77,3,1,5,0.00
2013-8-31,81.8,75.2,69.4,73.6,70.5,66.9,93,86,74,29.80,29.73,2,0,6,0.00
2013-9-1,78.6,73.5,70.7,74.9,70.8,67.0,96,91,83,29.85,29.75,1,0,3,0.52
2013-9-2,82.5,75.0,70.8,75.3,71.6,68.9,96,90,73,29.82,29.66,2,0,4,0.07
2013-9-3,83.0,74.6,66.1,71.5,68.4,59.7,95,82,64,29.76,29.64,3,1,6,0.00
2013-9-4,80.2,70.6,60.2,61.3,57.4,54.3,89,65,41,29.87,29.75,4,1,6,0.00
2013-9-5,69.9,64.6,56.6,61.7,55.2,42.1,91,73,38,30.10,29.81,3,1,7,0.06
2013-9-6,69.2,59.5,48.8,47.8,43.8,38.6,80,58,37,30.21,30.06,3,1,4,0.00
2013-9-7,78.8,65.3,50.4,57.0,50.5,45.6,85,62,35,30.06,29.81,3,1,5,0.00
2013-9-8,75.8,66.1,55.2,61.5,52.7,40.0,86,64,38,30.06,29.70,6,2,9,0.00
2013-9-9,69.8,59.8,46.8,50.8,45.2,41.5,86,60,39,30.20,30.05,2,1,4,0.00
2013-9-10,76.3,66.9,55.3,70.0,62.0,50.5,93,84,79,30.12,29.99,2,0,5,0.07
2013-9-11,94.8,81.6,69.1,77.3,72.0,67.5,96,75,47,30.02,29.88,3,1,6,0.00
2013-9-12,87.9,78.5,68.6,75.0,70.6,66.5,93,78,59,29.92,29.63,4,1,5,0.78
2013-9-13,78.3,69.4,60.8,68.7,64.7,55.6,96,85,65,29.71,29.51,4,1,10,0.12
2013-9-14,66.9,61.8,55.2,55.2,53.2,50.6,85,74,63,30.02,29.71,4,2,7,0.00
2013-9-15,71.1,61.0,50.5,53.5,49.8,46.3,91,69,43,30.13,30.01,3,1,5,0.00
2013-9-16,67.5,59.2,50.1,55.5,50.5,39.1,86,74,59,30.21,29.98,4,1,8,0.01
2013-9-17,62.4,52.9,42.3,46.5,39.7,35.4,84,63,43,30.40,30.22,4,1,9,0.00
2013-9-18,72.6,58.9,44.4,50.0,45.2,40.7,91,65,32,30.30,30.10,3,1,6,0.00
2013-9-19,78.1,64.1,49.2,55.7,51.6,46.1,91,67,40,30.10,29.98,2,0,3,0.00
2013-9-20,79.1,65.5,52.1,57.7,54.5,49.6,92,71,36,30.05,29.95,4,1,5,0.00
2013-9-21,75.9,66.7,56.7,66.0,60.3,53.8,94,81,59,29.99,29.68,3,1,7,0.00
2013-9-22,71.1,65.5,54.7,67.3,57.3,46.9,95,76,51,29.79,29.56,5,2,11,0.29
2013-9-23,62.2,54.6,47.0,47.1,42.7,40.3,80,65,51,29.97,29.79,5,2,14,0.00
2013-9-24,66.6,54.7,44.1,46.5,42.6,39.5,85,66,43,29.96,29.77,4,2,8,0.00
2013-9-25,66.5,56.7,47.6,50.0,47.2,43.5,89,72,54,29.94,29.84,4,1,8,0.00
2013-9-26,65.6,59.1,54.4,51.3,49.0,46.1,81,70,53,30.08,29.94,3,1,6,0.00
2013-9-27,65.3,59.3,52.7,53.9,51.4,49.6,90,76,60,30.22,30.08,3,1,6,0.00
2013-9-28,72.2,60.2,50.8,55.6,52.3,48.6,93,77,52,30.29,30.22,5,1,8,0.00
2013-9-29,65.9,55.5,48.5,54.1,49.0,44.9,96,81,47,30.23,30.09,3,1,6,0.00
2013-9-30,66.3,56.7,49.8,52.7,50.3,47.3,95,81,51,30.09,29.93,3,1,4,0.00
2013-10-1,75.5,62.1,49.1,56.1,51.8,46.9,93,72,44,29.93,29.80,3,1,7,0.00
2013-10-2,79.3,67.5,55.0,61.6,57.8,52.1,92,73,53,29.90,29.77,5,1,7,0.00
2013-10-3,77.2,66.7,57.0,57.6,51.6,46.1,88,61,35,30.04,29.90,3,1,4,0.00
2013-10-4,65.1,60.8,54.5,58.5,54.5,50.2,90,80,70,30.05,29.99,2,0,3,0.05
2013-10-5,68.6,63.1,59.6,58.8,57.2,55.5,91,81,66,30.08,30.01,3,1,4,0.00
2013-10-6,62.2,57.7,55.4,58.1,55.7,53.4,96,93,84,30.19,30.07,3,1,7,0.40
2013-10-7,77.2,66.8,57.8,70.8,63.4,55.3,97,89,74,30.09,29.77,4,1,14,0.12
2013-10-8,65.3,58.7,51.3,55.2,45.2,39.6,83,62,40,30.33,29.85,4,2,9,0.00
2013-10-9,60.8,53.3,45.3,46.7,43.9,39.8,87,71,55,30.44,30.33,5,2,8,0.00
2013-10-10,62.2,53.5,45.2,53.0,48.6,42.7,93,84,71,30.33,30.14,4,1,7,0.00
2013-10-11,69.6,58.7,51.5,56.0,49.6,27.4,95,74,21,30.14,30.06,3,1,5,0.00
2013-10-12,60.3,55.9,52.0,56.1,52.0,48.1,93,87,80,30.35,30.11,6,2,9,0.00
2013-10-13,59.7,52.7,45.2,50.0,46.7,42.2,92,81,61,30.41,30.33,4,1,9,0.00
2013-10-14,63.7,51.7,38.5,50.1,42.6,36.4,95,74,37,30.38,30.22,2,0,3,0.00
2013-10-15,67.6,57.6,49.7,53.9,50.3,46.9,92,77,57,30.23,30.14,4,1,8,0.00
2013-10-16,62.0,56.4,50.5,55.2,52.5,48.0,95,87,77,30.14,29.87,2,0,5,0.00
2013-10-17,72.6,62.0,53.3,61.0,57.1,51.6,96,85,66,29.88,29.68,2,0,5,0.00
2013-10-18,67.2,61.7,52.3,60.8,51.6,42.8,95,71,47,29.87,29.58,6,2,11,0.04
2013-10-19,67.1,56.1,42.8,48.0,43.9,39.8,90,66,41,29.95,29.72,2,0,3,0.00
2013-10-20,61.2,54.7,45.3,50.9,40.8,32.5,92,62,36,29.99,29.66,6,2,9,0.02
2013-10-21,66.4,53.3,40.3,44.6,40.6,36.4,88,65,40,30.09,29.97,4,1,8,0.00
2013-10-22,67.9,55.3,42.9,52.8,45.7,39.1,92,72,52,29.96,29.67,3,1,5,0.00
2013-10-23,52.2,47.5,39.7,38.6,35.5,32.0,88,64,47,29.77,29.56,2,1,5,0.00
2013-10-24,53.8,46.5,39.4,36.4,30.8,24.6,79,56,34,29.86,29.61,5,2,8,0.00
2013-10-25,49.8,42.3,33.7,35.2,29.6,26.7,86,62,43,30.13,29.86,5,1,9,0.00
2013-10-26,55.8,43.9,31.1,37.2,30.7,26.2,89,63,33,30.14,29.85,5,1,8,0.00
2013-10-27,55.0,48.7,42.8,40.6,35.5,29.4,86,62,41,30.04,29.79,6,2,8,0.01
2013-10-28,58.4,46.3,35.7,35.9,32.1,25.5,85,60,40,30.33,30.03,7,2,10,0.00
2013-10-29,48.4,39.8,32.3,34.4,27.3,19.5,89,63,32,30.43,30.32,2,0,5,0.00
2013-10-30,53.1,41.7,34.2,42.5,37.0,31.3,90,84,64,30.35,30.17,3,0,5,0.03
2013-10-31,62.7,49.9,35.4,59.2,46.8,33.3,94,89,81,30.22,29.76,3,1,7,0.01
2013-11-1,71.0,64.8,59.2,63.1,58.5,54.2,94,80,65,29.76,29.42,6,3,14,0.05
2013-11-2,66.5,57.1,48.3,54.5,46.1,40.4,92,69,39,29.69,29.54,4,1,5,0.00
2013-11-3,52.3,42.7,33.5,47.9,30.7,15.7,86,65,37,30.39,29.68,4,1,6,0.01
2013-11-4,42.1,34.8,28.8,25.6,19.7,13.4,80,56,32,30.68,30.39,4,1,8,0.00
2013-11-5,50.0,39.2,28.3,35.4,28.2,22.6,83,66,45,30.70,30.49,3,0,4,0.00
2013-11-6,60.9,50.7,39.6,50.2,41.5,33.2,86,72,51,30.49,30.01,4,1,6,0.00
2013-11-7,66.6,54.4,40.9,58.5,49.7,34.1,93,84,69,30.01,29.64,5,2,8,0.24
2013-11-8,48.9,40.8,34.1,35.8,28.4,22.6,78,62,49,30.07,29.78,6,2,17,0.01
2013-11-9,46.0,39.9,32.4,29.8,25.3,21.9,71,56,39,30.18,30.01,5,2,11,0.00
2013-11-10,56.9,46.4,41.3,44.8,37.0,29.7,93,71,51,30.00,29.70,6,2,10,0.05
2013-11-11,52.2,45.9,39.9,33.3,29.4,24.8,66,53,35,30.07,29.82,6,2,10,0.00
2013-11-12,48.8,36.8,28.5,39.6,26.4,17.0,90,67,54,30.17,29.85,6,2,10,0.11
2013-11-13,36.6,29.8,24.6,17.7,15.8,12.2,73,57,39,30.27,30.15,5,2,10,0.01
2013-11-14,50.8,39.6,29.1,26.2,21.7,16.9,63,50,34,30.15,30.01,6,2,11,0.00
2013-11-15,61.9,47.0,33.0,34.6,24.1,15.7,68,44,17,30.17,30.07,4,1,6,0.00
2013-11-16,59.4,47.0,37.6,34.6,30.4,23.7,79,56,26,30.28,30.15,2,0,5,0.00
2013-11-17,56.8,47.3,35.2,54.5,42.9,31.0,96,85,70,30.28,29.81,3,0,5,0.04
2013-11-18,65.3,59.6,49.1,61.5,48.4,33.2,97,69,43,29.80,29.49,6,2,10,0.17
2013-11-19,49.0,40.6,32.1,33.0,23.1,17.3,58,50,40,30.24,29.61,7,4,11,0.00
2013-11-20,41.3,33.9,28.3,18.2,15.9,13.1,65,48,32,30.60,30.25,5,2,11,0.00
2013-11-21,47.8,36.8,25.3,31.2,21.7,17.0,73,56,34,30.62,30.35,4,1,7,0.00
2013-11-22,47.2,44.4,40.6,45.8,41.1,31.1,95,88,68,30.35,29.79,1,0,3,0.18
2013-11-23,48.2,41.4,30.8,46.6,28.1,16.5,95,61,34,29.88,29.75,6,4,9,0.00
2013-11-24,30.7,25.2,21.2,18.8,5.4,-4.2,69,44,25,30.17,29.76,9,6,20,0.00
2013-11-25,33.4,25.7,17.7,17.6,4.3,-5.6,57,40,20,30.36,30.17,5,2,8,0.00
2013-11-26,42.7,37.3,31.0,41.0,24.0,17.6,94,60,45,30.32,30.01,4,1,9,0.10
2013-11-27,62.8,52.3,38.1,60.7,50.4,34.0,96,93,85,30.00,29.18,6,3,10,1.26
2013-11-28,38.1,32.0,25.9,33.7,18.0,7.3,84,57,36,30.41,29.42,8,4,16,0.00
2013-11-29,33.9,28.1,22.7,17.7,12.5,3.6,70,53,33,30.72,30.41,4,1,7,0.00
2013-11-30,33.8,26.6,17.3,23.9,15.8,9.2,74,64,53,30.78,30.41,2,1,6,0.00
2013-12-1,39.2,36.0,32.4,37.3,32.6,24.0,95,88,71,30.41,29.98,2,0,4,0.10
2013-12-2,40.1,38.1,36.6,38.5,36.6,35.2,96,94,92,29.99,29.90,2,0,4,0.01
2013-12-3,48.2,39.4,34.7,37.7,34.9,31.8,95,85,60,29.92,29.82,3,1,5,0.00
2013-12-4,44.0,37.0,31.7,31.7,29.7,27.3,92,76,55,30.18,29.92,3,1,6,0.00
2013-12-5,51.2,42.3,32.8,50.0,38.4,28.9,96,86,77,30.19,29.89,2,0,4,0.00
2013-12-6,56.4,49.4,34.9,55.3,45.5,32.6,96,87,67,30.11,29.82,4,1,6,0.38
2013-12-7,39.7,34.7,29.5,33.6,28.2,21.0,94,78,59,30.43,30.04,5,2,8,0.07
2013-12-8,31.2,29.2,24.6,21.9,17.7,15.2,75,62,53,30.58,30.43,3,1,5,0.00
2013-12-9,40.0,33.5,26.5,38.7,30.8,15.6,95,90,55,30.48,29.87,3,1,5,0.34
2013-12-10,35.0,32.2,26.1,33.7,29.3,18.3,95,89,69,29.98,29.76,6,1,9,0.03
2013-12-11,32.3,26.9,23.0,21.4,19.5,18.0,82,74,60,30.20,29.98,6,2,9,0.00
2013-12-12,25.2,22.4,16.5,19.2,9.6,2.7,81,59,38,30.26,30.06,5,2,12,0.00
2013-12-13,29.9,23.1,15.8,18.2,12.5,4.2,74,64,50,30.38,29.99,6,2,9,0.00
2013-12-14,30.5,17.1,11.6,29.0,7.7,-3.1,94,67,48,30.60,30.12,7,2,11,0.17
2013-12-15,35.3,29.1,22.9,34.0,26.8,21.2,95,91,79,30.12,29.40,9,4,13,0.66
2013-12-16,28.2,25.1,18.8,22.9,15.5,9.6,86,68,48,30.19,29.73,5,2,10,0.00
2013-12-17,20.9,15.4,7.9,18.6,9.9,0.6,91,79,63,30.27,29.93,3,1,4,0.34
2013-12-18,34.1,25.9,17.2,23.2,20.0,14.0,89,79,61,30.06,29.85,4,2,8,0.00
2013-12-19,43.0,34.3,25.4,28.7,25.0,20.8,83,70,53,30.10,29.93,6,2,11,0.00
2013-12-20,53.7,42.3,32.9,38.1,33.1,28.2,86,71,52,30.10,29.87,3,1,7,0.00
2013-12-21,58.0,49.6,42.6,48.6,43.4,35.1,90,79,70,29.92,29.82,3,1,5,0.00
2013-12-22,54.4,43.4,35.3,52.1,41.7,34.3,96,94,89,29.99,29.77,5,1,9,0.00
2013-12-23,37.9,34.7,33.0,36.9,33.7,32.0,97,96,96,30.07,29.94,2,0,4,0.58
2013-12-24,38.4,33.5,27.6,37.4,23.3,17.5,96,67,50,30.17,30.02,4,2,8,0.01
2013-12-25,27.4,20.6,15.6,17.5,7.1,1.9,66,56,45,30.53,30.17,6,2,9,0.00
2013-12-26,34.3,27.0,18.8,30.5,21.7,9.4,91,80,66,30.49,30.07,3,0,5,0.03
2013-12-27,34.2,29.4,24.8,23.6,21.7,20.1,87,73,59,30.26,30.17,5,1,6,0.00
2013-12-28,47.0,35.5,26.9,29.2,26.0,21.8,84,70,48,30.20,29.97,5,1,7,0.00
2013-12-29,43.0,36.3,29.8,39.4,32.4,26.1,95,86,68,30.02,29.37,5,1,9,1.08
2013-12-30,42.6,34.0,20.3,36.8,25.1,10.1,94,72,42,30.14,29.48,7,2,11,0.00
2013-12-31,26.4,20.2,14.8,16.2,7.3,-2.7,75,57,45,30.17,30.00,4,1,6,0.00
2014-1-1,28.1,23.2,18.1,13.0,9.6,7.0,67,56,45,30.37,30.17,5,2,9,0.00
2014-1-2,22.9,13.6,2.4,16.7,9.9,-1.1,88,85,62,30.34,29.83,6,3,12,0.09